createdAt,value
2018-09-20T00:00:08.739Z,66.04
2018-09-20T00:02:38.069Z,66.00
2018-09-20T00:05:07.450Z,66.17
2018-09-20T00:07:36.817Z,67.11
2018-09-20T00:10:06.955Z,66.69
2018-09-20T00:12:36.364Z,66.38
2018-09-20T00:15:05.815Z,66.59
2018-09-20T00:17:35.154Z,66.49
2018-09-20T00:20:04.591Z,66.62
2018-09-20T00:22:33.910Z,66.86
2018-09-20T00:25:03.251Z,67.95
2018-09-20T00:27:32.585Z,67.60
2018-09-20T00:30:02.251Z,68.64
2018-09-20T00:32:31.706Z,67.55
2018-09-20T00:35:01.032Z,67.01
2018-09-20T00:37:30.344Z,66.40
2018-09-20T00:39:59.773Z,66.79
2018-09-20T00:42:29.082Z,66.41
2018-09-20T00:44:58.443Z,67.77
2018-09-20T00:47:27.750Z,67.37
2018-09-20T00:49:57.308Z,67.67
2018-09-20T00:52:26.652Z,67.76
2018-09-20T00:54:56.114Z,69.04
2018-09-20T00:57:25.906Z,69.21
2018-09-20T00:59:55.456Z,69.24
2018-09-20T01:02:24.781Z,69.23
2018-09-20T01:04:54.100Z,69.29
2018-09-20T01:07:23.414Z,69.89
2018-09-20T01:09:52.839Z,69.94
2018-09-20T01:12:22.276Z,69.58
2018-09-20T01:14:51.699Z,70.68
2018-09-20T01:17:21.616Z,71.03
2018-09-20T01:19:50.932Z,71.42
2018-09-20T01:22:20.322Z,71.92
2018-09-20T01:24:49.704Z,72.49
2018-09-20T01:27:19.022Z,71.32
2018-09-20T01:29:48.420Z,72.20
2018-09-20T01:32:17.812Z,72.21
2018-09-20T01:34:47.315Z,71.37
2018-09-20T01:37:16.663Z,71.64
2018-09-20T01:39:46.069Z,71.54
2018-09-20T01:42:15.385Z,71.93
2018-09-20T01:44:44.726Z,72.09
2018-09-20T01:47:14.232Z,71.99
2018-09-20T01:49:43.565Z,71.99
2018-09-20T01:52:12.895Z,72.40
2018-09-20T01:54:42.226Z,73.28
2018-09-20T01:57:11.650Z,73.55
2018-09-20T01:59:40.993Z,73.71
2018-09-20T02:02:10.357Z,73.45
2018-09-20T02:04:39.693Z,72.78
2018-09-20T02:07:09.028Z,73.60
2018-09-20T02:09:38.459Z,73.07
2018-09-20T02:12:08.191Z,73.84
2018-09-20T02:14:37.535Z,74.12
2018-09-20T02:17:06.911Z,73.93
2018-09-20T02:19:36.230Z,74.04
2018-09-20T02:22:06.059Z,74.80
2018-09-20T02:24:35.393Z,75.01
2018-09-20T02:27:05.317Z,75.24
2018-09-20T02:29:34.632Z,75.53
2018-09-20T02:32:04.039Z,74.88
2018-09-20T02:34:33.420Z,75.21
2018-09-20T02:37:02.739Z,75.60
2018-09-20T02:39:32.064Z,75.58
2018-09-20T02:42:01.424Z,75.90
2018-09-20T02:44:30.742Z,76.11
2018-09-20T02:47:00.070Z,76.19
2018-09-20T02:49:29.527Z,76.10
2018-09-20T02:51:58.869Z,76.78
2018-09-20T02:54:28.212Z,76.64
2018-09-20T02:56:57.572Z,76.40
2018-09-20T02:59:26.948Z,76.41
2018-09-20T03:01:56.275Z,76.86
2018-09-20T03:04:25.612Z,76.55
2018-09-20T03:07:01.191Z,76.29
2018-09-20T03:09:30.563Z,76.66
2018-09-20T03:11:59.887Z,77.01
2018-09-20T03:14:29.519Z,77.53
2018-09-20T03:16:58.841Z,77.04
2018-09-20T03:19:28.263Z,76.93
2018-09-20T03:21:57.604Z,76.96
2018-09-20T03:24:27.006Z,77.98
2018-09-20T03:26:56.355Z,77.85
2018-09-20T03:29:25.856Z,77.61
2018-09-20T03:31:55.209Z,77.30
2018-09-20T03:34:24.533Z,77.46
2018-09-20T03:36:53.872Z,78.21
2018-09-20T03:39:23.212Z,78.16
2018-09-20T03:41:52.547Z,78.31
2018-09-20T03:44:21.959Z,78.57
2018-09-20T03:46:51.296Z,78.53
2018-09-20T03:49:20.632Z,78.44
2018-09-20T03:51:49.987Z,77.94
2018-09-20T03:54:19.296Z,78.31
2018-09-20T03:56:48.664Z,78.85
2018-09-20T03:59:18.583Z,79.03
2018-09-20T04:01:47.938Z,78.96
2018-09-20T04:04:17.267Z,79.45
2018-09-20T04:06:46.623Z,79.21
2018-09-20T04:09:16.009Z,79.89
2018-09-20T04:11:45.394Z,80.13
2018-09-20T04:14:14.733Z,80.07
2018-09-20T04:16:44.116Z,80.34
2018-09-20T04:19:13.515Z,79.61
2018-09-20T04:21:49.786Z,79.90
2018-09-20T04:24:19.118Z,80.13
2018-09-20T04:26:48.520Z,79.80
2018-09-20T04:29:17.878Z,80.59
2018-09-20T04:31:47.279Z,80.38
2018-09-20T04:34:16.584Z,80.77
2018-09-20T04:36:45.914Z,80.47
2018-09-20T04:39:15.303Z,81.18
2018-09-20T04:41:44.659Z,81.50
2018-09-20T04:44:13.994Z,81.43
2018-09-20T04:46:43.401Z,81.41
2018-09-20T04:49:12.769Z,81.45
2018-09-20T04:51:42.104Z,80.90
2018-09-20T04:54:11.496Z,81.44
2018-09-20T04:56:40.809Z,82.00
2018-09-20T04:59:10.244Z,82.25
2018-09-20T05:01:39.617Z,82.24
2018-09-20T05:04:08.951Z,81.48
2018-09-20T05:06:38.271Z,81.22
2018-09-20T05:09:12.340Z,81.10
2018-09-20T05:11:42.258Z,81.01
2018-09-20T05:14:12.016Z,81.01
2018-09-20T05:16:42.084Z,80.97
2018-09-20T05:19:11.500Z,81.32
2018-09-20T05:21:40.927Z,80.75
2018-09-20T05:24:11.088Z,81.08
2018-09-20T05:26:40.518Z,80.22
2018-09-20T05:29:10.024Z,81.15
2018-09-20T05:31:39.428Z,80.40
2018-09-20T05:34:08.794Z,80.97
2018-09-20T05:36:38.136Z,80.42
2018-09-20T05:39:09.318Z,81.12
2018-09-20T05:41:38.784Z,81.03
2018-09-20T05:44:08.639Z,80.82
2018-09-20T05:46:38.109Z,80.12
2018-09-20T05:49:07.612Z,80.57
2018-09-20T05:51:36.963Z,80.33
2018-09-20T05:54:06.548Z,79.99
2018-09-20T05:56:35.867Z,80.00
2018-09-20T05:59:05.623Z,80.40
2018-09-20T06:01:35.218Z,80.05
2018-09-20T06:04:04.588Z,80.10
2018-09-20T06:06:34.057Z,79.51
2018-09-20T06:09:03.545Z,79.62
2018-09-20T06:11:32.937Z,79.51
2018-09-20T06:14:02.288Z,79.49
2018-09-20T06:16:31.744Z,78.11
2018-09-20T06:19:01.500Z,77.81
2018-09-20T06:21:30.819Z,77.85
2018-09-20T06:24:00.163Z,77.54
2018-09-20T06:26:29.710Z,77.03
2018-09-20T06:28:59.101Z,76.17
2018-09-20T06:31:28.485Z,75.15
2018-09-20T06:33:57.827Z,73.51
2018-09-20T06:36:27.204Z,73.16
2018-09-20T06:38:56.653Z,73.44
2018-09-20T06:41:25.959Z,73.18
2018-09-20T06:43:55.326Z,73.51
2018-09-20T06:46:24.638Z,73.95
2018-09-20T06:48:54.022Z,73.99
2018-09-20T06:51:23.407Z,72.50
2018-09-20T06:53:52.746Z,72.40
2018-09-20T06:56:22.058Z,71.13
2018-09-20T06:58:51.436Z,69.25
2018-09-20T07:01:20.771Z,68.43
2018-09-20T07:03:50.092Z,68.37
2018-09-20T07:06:20.198Z,66.34
2018-09-20T07:08:49.567Z,64.68
2018-09-20T07:11:18.976Z,63.10
2018-09-20T07:13:48.673Z,63.19
2018-09-20T07:16:17.966Z,60.98
2018-09-20T07:18:47.446Z,58.82
2018-09-20T07:21:16.771Z,57.74
2018-09-20T07:23:46.123Z,57.63
2018-09-20T07:26:15.510Z,56.47
2018-09-20T07:28:44.856Z,54.81
2018-09-20T07:31:14.211Z,54.64
2018-09-20T07:33:43.551Z,55.37
2018-09-20T07:36:12.963Z,57.02
2018-09-20T07:38:42.298Z,56.93
2018-09-20T07:41:11.927Z,55.53
2018-09-20T07:43:41.382Z,54.67
2018-09-20T07:46:10.661Z,53.69
2018-09-20T07:48:40.131Z,55.56
2018-09-20T07:51:09.529Z,58.03
2018-09-20T07:53:38.858Z,57.35
2018-09-20T07:56:08.188Z,58.90
2018-09-20T07:58:37.494Z,58.59
2018-09-20T08:01:06.842Z,58.71
2018-09-20T08:03:36.173Z,59.14
2018-09-20T08:06:05.513Z,59.25
2018-09-20T08:08:34.955Z,58.94
2018-09-20T08:11:04.291Z,59.44
2018-09-20T08:13:33.615Z,59.77
2018-09-20T08:16:02.983Z,60.21
2018-09-20T08:18:32.295Z,60.85
2018-09-20T08:21:01.618Z,59.35
2018-09-20T08:23:30.961Z,58.65
2018-09-20T08:26:00.466Z,57.62
2018-09-20T08:28:29.868Z,56.22
2018-09-20T08:30:59.211Z,55.62
2018-09-20T08:33:28.547Z,53.47
2018-09-20T08:35:57.981Z,53.22
2018-09-20T08:38:30.353Z,53.73
2018-09-20T08:40:59.693Z,54.17
2018-09-20T08:43:29.088Z,53.16
2018-09-20T08:45:58.403Z,54.20
2018-09-20T08:48:27.764Z,54.38
2018-09-20T08:50:57.319Z,52.50
2018-09-20T08:53:26.676Z,50.58
2018-09-20T08:55:56.186Z,49.45
2018-09-20T08:58:25.683Z,48.81
2018-09-20T09:00:55.067Z,48.09
2018-09-20T09:03:24.432Z,47.65
2018-09-20T09:05:53.800Z,47.23
2018-09-20T09:08:23.235Z,46.80
2018-09-20T09:10:52.615Z,45.29
2018-09-20T09:13:21.958Z,44.96
2018-09-20T09:15:51.391Z,45.40
2018-09-20T09:18:20.730Z,45.83
2018-09-20T09:20:50.075Z,44.23
2018-09-20T09:23:19.446Z,45.30
2018-09-20T09:25:48.779Z,45.04
2018-09-20T09:28:18.131Z,43.56
2018-09-20T09:30:47.489Z,44.42
2018-09-20T09:33:16.935Z,43.67
2018-09-20T09:35:46.287Z,45.62
2018-09-20T09:38:15.628Z,45.92
2018-09-20T09:40:45.042Z,44.93
2018-09-20T09:43:14.405Z,43.61
2018-09-20T09:45:43.749Z,43.97
2018-09-20T09:48:13.185Z,44.43
2018-09-20T09:50:42.605Z,45.32
2018-09-20T09:53:11.989Z,45.21
2018-09-20T09:55:41.366Z,44.79
2018-09-20T09:58:10.778Z,44.36
2018-09-20T10:00:42.131Z,45.55
2018-09-20T10:03:11.694Z,45.89
2018-09-20T10:05:41.064Z,44.73
2018-09-20T10:08:10.433Z,43.66
2018-09-20T10:10:39.839Z,44.63
2018-09-20T10:13:09.270Z,43.87
2018-09-20T10:15:38.976Z,43.88
2018-09-20T10:18:08.312Z,42.85
2018-09-20T10:20:37.647Z,42.11
2018-09-20T10:23:07.230Z,42.46
2018-09-20T10:25:36.767Z,40.65
2018-09-20T10:28:38.202Z,41.18
2018-09-20T10:31:07.547Z,40.10
2018-09-20T10:33:36.863Z,40.22
2018-09-20T10:36:06.192Z,39.54
2018-09-20T10:38:35.596Z,40.61
2018-09-20T10:41:04.935Z,41.52
2018-09-20T10:43:34.570Z,40.14
2018-09-20T10:46:03.957Z,39.81
2018-09-20T10:48:33.576Z,40.55
2018-09-20T10:51:02.904Z,41.60
2018-09-20T10:53:32.295Z,41.80
2018-09-20T10:56:01.879Z,41.73
2018-09-20T10:58:31.255Z,40.67
2018-09-20T11:01:00.602Z,40.19
2018-09-20T11:03:29.942Z,38.61
2018-09-20T11:05:59.288Z,38.85
2018-09-20T11:08:28.834Z,37.60
2018-09-20T11:10:58.344Z,39.95
2018-09-20T11:13:27.656Z,39.44
2018-09-20T11:15:57.113Z,38.20
2018-09-20T11:18:26.517Z,38.20
2018-09-20T11:20:55.831Z,37.37
2018-09-20T11:23:25.308Z,38.03
2018-09-20T11:25:55.054Z,37.35
2018-09-20T11:28:24.475Z,36.64
2018-09-20T11:30:54.000Z,36.64
2018-09-20T11:33:23.391Z,35.88
2018-09-20T11:35:52.755Z,36.21
2018-09-20T11:38:22.077Z,35.98
2018-09-20T11:40:51.520Z,36.55
2018-09-20T11:43:21.007Z,36.04
2018-09-20T11:45:50.523Z,35.71
2018-09-20T11:48:19.841Z,36.31
2018-09-20T11:50:49.369Z,36.24
2018-09-20T11:53:18.783Z,35.95
2018-09-20T11:55:48.088Z,35.91
2018-09-20T11:58:17.488Z,36.29
2018-09-20T12:00:46.791Z,36.11
2018-09-20T12:03:16.117Z,35.51
2018-09-20T12:05:45.495Z,34.28
2018-09-20T12:08:14.846Z,35.68
2018-09-20T12:10:44.176Z,37.06
2018-09-20T12:13:13.600Z,36.67
2018-09-20T12:15:43.088Z,36.84
2018-09-20T12:18:12.495Z,36.39
2018-09-20T12:20:42.023Z,36.95
2018-09-20T12:23:11.457Z,36.10
2018-09-20T12:25:40.781Z,35.46
2018-09-20T12:28:10.125Z,35.20
2018-09-20T12:30:39.451Z,35.57
2018-09-20T12:33:09.026Z,34.98
2018-09-20T12:35:38.470Z,34.31
2018-09-20T12:38:07.802Z,34.65
2018-09-20T12:40:37.157Z,34.88
2018-09-20T12:43:06.580Z,35.05
2018-09-20T12:45:36.021Z,34.93
2018-09-20T12:48:05.444Z,35.50
2018-09-20T12:50:34.758Z,35.60
2018-09-20T12:53:04.180Z,34.92
2018-09-20T12:55:33.991Z,36.17
2018-09-20T12:58:03.343Z,36.28
2018-09-20T13:00:32.646Z,36.90
2018-09-20T13:03:02.016Z,38.31
2018-09-20T13:05:31.349Z,37.51
2018-09-20T13:08:00.679Z,36.91
2018-09-20T13:10:30.103Z,36.92
2018-09-20T13:12:59.476Z,37.20
2018-09-20T13:15:28.759Z,37.09
2018-09-20T13:17:58.105Z,37.49
2018-09-20T13:20:27.507Z,36.42
2018-09-20T13:22:56.814Z,36.69
2018-09-20T13:25:26.307Z,36.93
2018-09-20T13:27:55.711Z,36.62
2018-09-20T13:30:25.084Z,36.58
2018-09-20T13:32:54.419Z,36.18
2018-09-20T13:35:23.856Z,36.03
2018-09-20T13:37:53.340Z,36.13
2018-09-20T13:40:22.955Z,35.26
2018-09-20T13:42:52.286Z,34.29
2018-09-20T13:45:21.677Z,34.45
2018-09-20T13:47:51.034Z,35.08
2018-09-20T13:50:20.477Z,34.17
2018-09-20T13:55:30.391Z,35.24
2018-09-20T13:57:59.864Z,33.95
2018-09-20T14:00:29.192Z,33.85
2018-09-20T14:02:58.551Z,35.18
2018-09-20T14:05:27.950Z,35.28
2018-09-20T14:07:57.475Z,34.45
2018-09-20T14:10:26.956Z,35.01
2018-09-20T14:12:56.319Z,34.92
2018-09-20T14:15:25.678Z,34.33
2018-09-20T14:17:54.999Z,35.57
2018-09-20T14:20:24.348Z,35.09
2018-09-20T14:22:53.683Z,35.84
2018-09-20T14:25:23.072Z,35.84
2018-09-20T14:27:52.583Z,35.32
2018-09-20T14:30:21.983Z,34.51
2018-09-20T14:32:51.500Z,35.37
2018-09-20T14:35:21.130Z,34.41
2018-09-20T14:37:50.487Z,34.73
2018-09-20T14:40:19.819Z,35.42
2018-09-20T14:42:49.159Z,35.77
2018-09-20T14:45:18.632Z,35.02
2018-09-20T14:47:47.964Z,35.18
2018-09-20T14:50:17.458Z,35.65
2018-09-20T14:52:47.292Z,36.52
2018-09-20T14:55:16.679Z,36.62
2018-09-20T14:57:46.041Z,36.63
2018-09-20T15:00:15.549Z,36.87
2018-09-20T15:02:44.879Z,37.05
2018-09-20T15:05:14.279Z,37.62
2018-09-20T15:07:43.666Z,37.06
2018-09-20T15:10:13.471Z,37.09
2018-09-20T15:12:42.988Z,37.84
2018-09-20T15:15:12.565Z,36.99
2018-09-20T15:17:48.243Z,38.12
2018-09-20T15:20:17.611Z,37.27
2018-09-20T15:22:46.948Z,37.60
2018-09-20T15:25:17.063Z,37.54
2018-09-20T15:27:46.453Z,38.22
2018-09-20T15:30:15.931Z,37.42
2018-09-20T15:32:45.510Z,37.47
2018-09-20T15:35:14.877Z,38.25
2018-09-20T15:37:44.214Z,37.91
2018-09-20T15:40:14.505Z,37.82
2018-09-20T15:42:43.916Z,38.42
2018-09-20T15:45:13.259Z,38.67
2018-09-20T15:47:42.638Z,39.08
2018-09-20T15:50:12.002Z,38.95
2018-09-20T15:52:41.378Z,38.78
2018-09-20T15:55:10.833Z,39.18
2018-09-20T15:57:40.205Z,39.51
2018-09-20T16:00:09.610Z,39.87
2018-09-20T16:02:38.985Z,39.98
2018-09-20T16:05:08.450Z,40.30
2018-09-20T16:07:37.904Z,40.34
2018-09-20T16:10:07.836Z,40.34
2018-09-20T16:12:37.235Z,40.74
2018-09-20T16:15:06.693Z,39.90
2018-09-20T16:17:36.146Z,40.75
2018-09-20T16:20:06.405Z,40.61
2018-09-20T16:22:35.739Z,40.95
2018-09-20T16:25:05.747Z,41.32
2018-09-20T16:27:35.265Z,40.78
2018-09-20T16:31:18.927Z,41.06
2018-09-20T16:34:47.218Z,41.87
2018-09-20T16:37:37.022Z,41.97
2018-09-20T16:40:07.635Z,41.32
2018-09-20T16:42:41.410Z,41.50
2018-09-20T16:45:10.839Z,42.61
2018-09-20T16:47:40.199Z,42.63
2018-09-20T16:50:09.538Z,41.95
2018-09-20T16:52:39.319Z,43.40
2018-09-20T16:55:09.445Z,43.28
2018-09-20T16:57:38.774Z,42.90
2018-09-20T17:00:10.510Z,43.45
2018-09-20T17:02:40.638Z,44.39
2018-09-20T17:05:10.856Z,43.72
2018-09-20T17:07:40.219Z,44.10
2018-09-20T17:10:09.635Z,45.21
2018-09-20T17:12:39.019Z,44.70
2018-09-20T17:15:08.556Z,44.90
2018-09-20T17:17:37.739Z,45.94
2018-09-20T17:20:07.186Z,46.78
2018-09-20T17:22:36.561Z,46.35
2018-09-20T17:25:05.990Z,46.57
2018-09-20T17:27:35.597Z,46.38
2018-09-20T17:30:05.208Z,47.34
2018-09-20T17:32:34.558Z,46.88
2018-09-20T17:35:04.865Z,47.64
2018-09-20T17:37:35.789Z,47.45
2018-09-20T17:40:05.531Z,48.14
2018-09-20T17:42:35.919Z,49.20
2018-09-20T17:45:05.687Z,48.65
2018-09-20T17:47:35.259Z,48.93
2018-09-20T17:50:04.702Z,48.93
2018-09-20T17:52:34.595Z,50.16
2018-09-20T17:55:04.592Z,48.87
2018-09-20T17:57:35.448Z,48.67
2018-09-20T18:00:04.962Z,49.70
2018-09-20T18:02:34.322Z,48.18
2018-09-20T18:05:03.693Z,48.38
2018-09-20T18:07:33.115Z,48.26
2018-09-20T18:10:02.578Z,48.04
2018-09-20T18:12:32.001Z,47.43
2018-09-20T18:15:01.981Z,46.95
2018-09-20T18:17:31.538Z,46.26
2018-09-20T18:20:00.906Z,45.32
2018-09-20T18:22:30.312Z,44.87
2018-09-20T18:24:59.852Z,43.79
2018-09-20T18:27:29.846Z,44.63
2018-09-20T18:29:59.348Z,42.68
2018-09-20T18:32:29.652Z,42.94
2018-09-20T18:34:59.771Z,42.81
2018-09-20T18:37:30.978Z,42.53
2018-09-20T18:40:01.498Z,42.27
2018-09-20T18:42:31.092Z,43.50
2018-09-20T18:45:00.995Z,43.92
2018-09-20T18:47:30.588Z,43.22
2018-09-20T18:50:00.464Z,43.67
2018-09-20T18:52:30.084Z,43.07
2018-09-20T18:54:59.480Z,43.04
2018-09-20T18:57:29.185Z,42.86
2018-09-20T18:59:59.401Z,42.70
2018-09-20T19:02:29.131Z,42.34
2018-09-20T19:04:58.625Z,42.03
2018-09-20T19:07:28.071Z,42.13
2018-09-20T19:09:57.627Z,42.94
2018-09-20T19:12:27.145Z,43.36
2018-09-20T19:14:56.934Z,42.96
2018-09-20T19:17:26.383Z,42.50
2018-09-20T19:19:55.790Z,42.16
2018-09-20T19:22:25.273Z,42.22
2018-09-20T19:24:54.689Z,42.40
2018-09-20T19:27:24.211Z,41.81
2018-09-20T19:29:53.646Z,42.25
2018-09-20T19:34:51.904Z,42.46
2018-09-20T19:37:21.597Z,42.80
2018-09-20T19:39:51.059Z,42.85
2018-09-20T19:42:20.667Z,42.55
2018-09-20T19:44:50.406Z,42.52
2018-09-20T19:47:20.840Z,42.80
2018-09-20T19:49:50.405Z,43.57
2018-09-20T19:52:20.063Z,43.71
2018-09-20T19:54:49.587Z,43.26
2018-09-20T19:57:19.034Z,44.13
2018-09-20T19:59:49.324Z,43.88
2018-09-20T20:02:18.793Z,43.24
2018-09-20T20:04:48.469Z,43.47
2018-09-20T20:07:18.044Z,42.85
2018-09-20T20:09:47.618Z,43.64
2018-09-20T20:12:17.023Z,43.94
2018-09-20T20:14:46.584Z,43.27
2018-09-20T20:17:16.087Z,43.07
2018-09-20T20:19:45.658Z,43.74
2018-09-20T20:24:43.636Z,43.72
2018-09-20T20:27:13.117Z,42.93
2018-09-20T20:29:42.797Z,43.60
2018-09-20T20:32:12.360Z,43.88
2018-09-20T20:34:41.864Z,43.60
2018-09-20T20:37:11.211Z,44.22
2018-09-20T20:39:40.649Z,43.61
2018-09-20T20:42:10.072Z,44.20
2018-09-20T20:44:40.160Z,43.87
2018-09-20T20:47:09.580Z,44.48
2018-09-20T20:49:38.933Z,45.25
2018-09-20T20:52:08.711Z,45.17
2018-09-20T20:54:38.154Z,44.97
2018-09-20T20:57:07.676Z,45.01
2018-09-20T20:59:37.279Z,45.84
2018-09-20T21:02:06.695Z,46.13
2018-09-20T21:04:36.459Z,45.36
2018-09-20T21:07:06.440Z,45.50
2018-09-20T21:09:36.194Z,45.61
2018-09-20T21:12:05.616Z,45.98
2018-09-20T21:14:35.285Z,46.80
2018-09-20T21:17:04.809Z,46.85
2018-09-20T21:19:34.282Z,46.88
2018-09-20T21:22:03.779Z,47.06
2018-09-20T21:24:33.328Z,46.71
2018-09-20T21:27:02.731Z,46.91
2018-09-20T21:29:32.234Z,46.87
2018-09-20T21:32:01.704Z,47.15
2018-09-20T21:34:31.184Z,46.72
2018-09-20T21:37:00.582Z,47.13
2018-09-20T21:39:30.154Z,47.36
2018-09-20T21:41:59.510Z,47.29
2018-09-20T21:44:28.896Z,47.82
2018-09-20T21:46:58.299Z,47.83
2018-09-20T21:49:27.799Z,48.02
2018-09-20T21:51:57.250Z,47.59
2018-09-20T21:54:26.699Z,47.93
2018-09-20T21:56:56.085Z,47.64
2018-09-20T21:59:25.604Z,47.67
2018-09-20T22:02:00.039Z,47.58
2018-09-20T22:04:29.517Z,47.94
2018-09-20T22:07:00.168Z,47.92
2018-09-20T22:09:30.716Z,48.54
2018-09-20T22:12:00.068Z,49.22
2018-09-20T22:14:29.446Z,48.55
2018-09-20T22:16:58.855Z,49.65
2018-09-20T22:19:28.495Z,49.05
2018-09-20T22:21:57.827Z,49.38
2018-09-20T22:24:27.432Z,49.62
2018-09-20T22:26:56.799Z,50.76
2018-09-20T22:29:26.120Z,50.18
2018-09-20T22:31:55.551Z,50.14
2018-09-20T22:34:24.911Z,50.79
2018-09-20T22:36:54.452Z,51.62
2018-09-20T22:39:23.837Z,50.93
2018-09-20T22:41:53.444Z,51.39
2018-09-20T22:44:22.825Z,51.65
2018-09-20T22:46:52.203Z,51.48
2018-09-20T22:49:21.656Z,51.99
2018-09-20T22:51:51.114Z,52.15
2018-09-20T22:54:20.515Z,52.09
2018-09-20T22:56:49.934Z,52.10
2018-09-20T22:59:19.577Z,51.55
2018-09-20T23:01:48.961Z,51.77
2018-09-20T23:04:18.427Z,51.67
2018-09-20T23:06:47.775Z,52.51
2018-09-20T23:09:17.099Z,51.99
2018-09-20T23:11:46.430Z,51.96
2018-09-20T23:14:15.796Z,51.91
2018-09-20T23:16:45.135Z,52.73
2018-09-20T23:19:14.603Z,52.89
2018-09-20T23:21:43.935Z,52.61
2018-09-20T23:24:13.409Z,52.65
2018-09-20T23:26:42.936Z,52.65
2018-09-20T23:29:12.625Z,52.62
2018-09-20T23:31:41.957Z,52.71
2018-09-20T23:34:11.338Z,53.54
2018-09-20T23:36:40.745Z,53.07
2018-09-20T23:39:12.386Z,53.50
2018-09-20T23:41:41.875Z,53.05
2018-09-20T23:44:11.308Z,53.38
2018-09-20T23:46:40.635Z,53.64
2018-09-20T23:49:09.990Z,53.87
2018-09-20T23:51:39.322Z,54.65
2018-09-20T23:54:08.861Z,54.04
2018-09-20T23:56:38.223Z,54.10
2018-09-20T23:59:07.628Z,54.67
